Cherkessk, Russia
Current Conditions -  °F | °C
As of 3:00 AM on Wednesday 22 Oct 2014 (Local Time) from URMM Reporting Station
Scattered Clouds Scattered Clouds  
Wind Chill: 39°   Ceiling: Unl
Heat Index: 39°   Visibility: 6mi
Dew Point: 37°   Wind: 2mph
Humidity: 93%   Direction: NA
Pressure: 29.83"   Gusts: NA
Location:  44.29°N, 42.06°E
Report Text: URMM 220000Z VRB01MPS 9999 SCT120 04/03 Q1010 R30/CLRD70 NOSIGRMK QFE729/0972
Loading
Personal Weather Stations






























Interactive Weather Map
Tropical Storm Tracking
New forecast layout! Learn more

10-Day Weather Forecast

Advertisements
Track Severe Weather on mobile